CPX798 Details

Departure: Arturo Merino Benitez International Airport (SCEL)
Arrival: Miami International Airport (KMIA) at N/A
Route: IKBIX Y183 PEAKY DVALL CURSO5
Notes:


Current Weather Information
SCEL 251100Z 00000KT 9999 OVC160 11/06 Q1017 NOSIG
KMIA 251053Z 00000KT 10SM FEW025 SCT250 27/24 A2991 RMK AO2 SLP129 CB DSNT SW T02670244